Aurelia, North Dakota
Current Conditions -  °F | °C
As of 10:55 AM on Thursday 27 Nov 2014 (Local Time) from K08D Reporting Station
Overcast Overcast  
Wind Chill: -2°   Ceiling: 600
Heat Index: 12°   Visibility: 8mi
Dew Point: 12°   Wind: 12mph
Humidity: 100%   Direction: 140°SE
Pressure: 30.09"   Gusts: NA
Location:  48.4598°N, 101.907°W
Report Text: K08D 271655Z AUTO 14010KT 8SM FEW003 OVC006 M11/M11 A3009 RMK AO2
Loading
Personal Weather Stations






























Interactive Weather Map New forecast layout! Learn more

10-Day Weather Forecast

Advertisements
Track Severe Weather on mobile